sensor_id;sensor_type;location;lat;lon;timestamp;temperature;humidity
21123;DHT22;10719;48.130;11.630;2023-07-08T00:00:16;16.80;99.90
21123;DHT22;10719;48.130;11.630;2023-07-08T00:02:42;16.80;99.90
21123;DHT22;10719;48.130;11.630;2023-07-08T00:05:13;16.70;99.90
21123;DHT22;10719;48.130;11.630;2023-07-08T00:07:40;16.70;99.90
21123;DHT22;10719;48.130;11.630;2023-07-08T00:10:24;16.70;99.90
21123;DHT22;10719;48.130;11.630;2023-07-08T00:12:55;16.60;99.90
21123;DHT22;10719;48.130;11.630;2023-07-08T00:15:25;16.60;99.90
21123;DHT22;10719;48.130;11.630;2023-07-08T00:17:52;16.60;99.90
21123;DHT22;10719;48.130;11.630;2023-07-08T00:20:27;16.60;99.90
21123;DHT22;10719;48.130;11.630;2023-07-08T00:22:55;16.50;99.90
21123;DHT22;10719;48.130;11.630;2023-07-08T00:25:22;16.60;99.90
21123;DHT22;10719;48.130;11.630;2023-07-08T00:27:48;16.50;99.90
21123;DHT22;10719;48.130;11.630;2023-07-08T00:30:23;16.60;99.90
21123;DHT22;10719;48.130;11.630;2023-07-08T00:32:50;16.50;99.90
21123;DHT22;10719;48.130;11.630;2023-07-08T00:37:58;16.50;99.90
21123;DHT22;10719;48.130;11.630;2023-07-08T00:40:28;16.50;99.90
21123;DHT22;10719;48.130;11.630;2023-07-08T00:42:56;16.50;99.90
21123;DHT22;10719;48.130;11.630;2023-07-08T00:45:40;16.50;99.90
21123;DHT22;10719;48.130;11.630;2023-07-08T00:48:22;16.50;99.90
21123;DHT22;10719;48.130;11.630;2023-07-08T00:50:48;16.50;99.90
21123;DHT22;10719;48.130;11.630;2023-07-08T00:53:32;16.50;99.90
21123;DHT22;10719;48.130;11.630;2023-07-08T00:58:42;16.50;99.90
21123;DHT22;10719;48.130;11.630;2023-07-08T01:01:09;16.50;99.90
21123;DHT22;10719;48.130;11.630;2023-07-08T01:06:28;16.50;99.90
21123;DHT22;10719;48.130;11.630;2023-07-08T01:09:03;16.50;99.90
21123;DHT22;10719;48.130;11.630;2023-07-08T01:11:30;16.50;99.90
21123;DHT22;10719;48.130;11.630;2023-07-08T01:13:58;16.50;99.90
21123;DHT22;10719;48.130;11.630;2023-07-08T01:16:25;16.40;99.90
21123;DHT22;10719;48.130;11.630;2023-07-08T01:18:51;16.40;99.90
21123;DHT22;10719;48.130;11.630;2023-07-08T01:21:39;16.50;99.90
21123;DHT22;10719;48.130;11.630;2023-07-08T01:24:08;16.60;99.90
21123;DHT22;10719;48.130;11.630;2023-07-08T01:26:36;16.60;99.90
21123;DHT22;10719;48.130;11.630;2023-07-08T01:29:03;16.50;99.90
21123;DHT22;10719;48.130;11.630;2023-07-08T01:31:29;16.50;99.90
21123;DHT22;10719;48.130;11.630;2023-07-08T01:33:55;16.40;99.90
21123;DHT22;10719;48.130;11.630;2023-07-08T01:36:21;16.40;99.90
21123;DHT22;10719;48.130;11.630;2023-07-08T01:38:47;16.40;99.90
21123;DHT22;10719;48.130;11.630;2023-07-08T01:41:15;16.40;99.90
21123;DHT22;10719;48.130;11.630;2023-07-08T01:43:41;16.40;99.90
21123;DHT22;10719;48.130;11.630;2023-07-08T01:46:19;16.40;99.90
21123;DHT22;10719;48.130;11.630;2023-07-08T01:48:50;16.30;99.90
21123;DHT22;10719;48.130;11.630;2023-07-08T01:51:17;16.30;99.90
21123;DHT22;10719;48.130;11.630;2023-07-08T01:53:43;16.20;99.90
21123;DHT22;10719;48.130;11.630;2023-07-08T01:56:12;16.20;99.90
21123;DHT22;10719;48.130;11.630;2023-07-08T01:58:38;16.30;99.90
21123;DHT22;10719;48.130;11.630;2023-07-08T02:01:04;16.20;99.90
21123;DHT22;10719;48.130;11.630;2023-07-08T02:03:30;16.20;99.90
21123;DHT22;10719;48.130;11.630;2023-07-08T02:05:55;16.10;99.90
21123;DHT22;10719;48.130;11.630;2023-07-08T02:08:21;16.20;99.90
21123;DHT22;10719;48.130;11.630;2023-07-08T02:10:56;16.10;99.90
21123;DHT22;10719;48.130;11.630;2023-07-08T02:13:23;16.10;99.90
21123;DHT22;10719;48.130;11.630;2023-07-08T02:15:50;16.10;99.90
21123;DHT22;10719;48.130;11.630;2023-07-08T02:18:16;16.00;99.90
21123;DHT22;10719;48.130;11.630;2023-07-08T02:20:44;16.00;99.90
21123;DHT22;10719;48.130;11.630;2023-07-08T02:23:10;16.00;99.90
21123;DHT22;10719;48.130;11.630;2023-07-08T02:25:36;16.10;99.90
21123;DHT22;10719;48.130;11.630;2023-07-08T02:28:02;16.10;99.90
21123;DHT22;10719;48.130;11.630;2023-07-08T02:30:28;16.00;99.90
21123;DHT22;10719;48.130;11.630;2023-07-08T02:32:53;15.90;99.90
21123;DHT22;10719;48.130;11.630;2023-07-08T02:35:24;15.90;99.90
21123;DHT22;10719;48.130;11.630;2023-07-08T02:37:51;15.90;99.90
21123;DHT22;10719;48.130;11.630;2023-07-08T02:40:17;15.90;99.90
21123;DHT22;10719;48.130;11.630;2023-07-08T02:42:42;15.90;99.90
21123;DHT22;10719;48.130;11.630;2023-07-08T02:45:08;15.80;99.90
21123;DHT22;10719;48.130;11.630;2023-07-08T02:47:34;15.80;99.90
21123;DHT22;10719;48.130;11.630;2023-07-08T02:49:59;15.70;99.90
21123;DHT22;10719;48.130;11.630;2023-07-08T02:52:25;15.70;99.90
21123;DHT22;10719;48.130;11.630;2023-07-08T02:54:51;15.80;99.90
21123;DHT22;10719;48.130;11.630;2023-07-08T02:57:16;15.80;99.90
21123;DHT22;10719;48.130;11.630;2023-07-08T02:59:42;15.80;99.90
21123;DHT22;10719;48.130;11.630;2023-07-08T03:02:08;15.70;99.90
21123;DHT22;10719;48.130;11.630;2023-07-08T03:04:33;15.70;99.90
21123;DHT22;10719;48.130;11.630;2023-07-08T03:07:04;15.70;99.90
21123;DHT22;10719;48.130;11.630;2023-07-08T03:09:30;15.70;99.90
21123;DHT22;10719;48.130;11.630;2023-07-08T03:11:58;15.70;99.90
21123;DHT22;10719;48.130;11.630;2023-07-08T03:14:23;15.70;99.90
21123;DHT22;10719;48.130;11.630;2023-07-08T03:16:49;15.70;99.90
21123;DHT22;10719;48.130;11.630;2023-07-08T03:19:15;15.70;99.90
21123;DHT22;10719;48.130;11.630;2023-07-08T03:21:41;15.70;99.90
21123;DHT22;10719;48.130;11.630;2023-07-08T03:24:10;15.60;99.90
21123;DHT22;10719;48.130;11.630;2023-07-08T03:26:36;15.70;99.90
21123;DHT22;10719;48.130;11.630;2023-07-08T03:29:02;15.70;99.90
21123;DHT22;10719;48.130;11.630;2023-07-08T03:31:28;15.70;99.90
21123;DHT22;10719;48.130;11.630;2023-07-08T03:33:53;15.70;99.90
21123;DHT22;10719;48.130;11.630;2023-07-08T03:36:19;15.70;99.90
21123;DHT22;10719;48.130;11.630;2023-07-08T03:38:53;15.70;99.90
21123;DHT22;10719;48.130;11.630;2023-07-08T03:41:19;15.70;99.90
21123;DHT22;10719;48.130;11.630;2023-07-08T03:43:45;15.80;99.90
21123;DHT22;10719;48.130;11.630;2023-07-08T03:46:13;15.80;99.90
21123;DHT22;10719;48.130;11.630;2023-07-08T03:48:39;15.90;99.90
21123;DHT22;10719;48.130;11.630;2023-07-08T03:51:11;15.80;99.90
21123;DHT22;10719;48.130;11.630;2023-07-08T03:53:40;15.90;99.90
21123;DHT22;10719;48.130;11.630;2023-07-08T03:56:07;15.90;99.90
21123;DHT22;10719;48.130;11.630;2023-07-08T03:58:33;15.90;99.90
21123;DHT22;10719;48.130;11.630;2023-07-08T04:00:59;15.90;99.90
21123;DHT22;10719;48.130;11.630;2023-07-08T04:03:24;16.00;99.90
21123;DHT22;10719;48.130;11.630;2023-07-08T04:05:50;16.00;99.90
21123;DHT22;10719;48.130;11.630;2023-07-08T04:08:15;16.10;99.90
21123;DHT22;10719;48.130;11.630;2023-07-08T04:10:41;16.10;99.90
21123;DHT22;10719;48.130;11.630;2023-07-08T04:13:06;16.10;99.90
21123;DHT22;10719;48.130;11.630;2023-07-08T04:15:32;16.10;99.90
21123;DHT22;10719;48.130;11.630;2023-07-08T04:17:57;16.10;99.90
21123;DHT22;10719;48.130;11.630;2023-07-08T04:20:23;16.20;99.90
21123;DHT22;10719;48.130;11.630;2023-07-08T04:22:49;16.30;99.90
21123;DHT22;10719;48.130;11.630;2023-07-08T04:25:14;16.20;99.90
21123;DHT22;10719;48.130;11.630;2023-07-08T04:27:40;16.30;99.90
21123;DHT22;10719;48.130;11.630;2023-07-08T04:30:07;16.40;99.90
21123;DHT22;10719;48.130;11.630;2023-07-08T04:32:32;16.30;99.90
21123;DHT22;10719;48.130;11.630;2023-07-08T04:34:58;16.50;99.90
21123;DHT22;10719;48.130;11.630;2023-07-08T04:37:24;16.50;99.90
21123;DHT22;10719;48.130;11.630;2023-07-08T04:39:49;16.50;99.90
21123;DHT22;10719;48.130;11.630;2023-07-08T04:42:15;16.60;99.90
21123;DHT22;10719;48.130;11.630;2023-07-08T04:44:43;16.60;99.90
21123;DHT22;10719;48.130;11.630;2023-07-08T04:47:09;16.60;99.90
21123;DHT22;10719;48.130;11.630;2023-07-08T04:49:35;16.70;99.90
21123;DHT22;10719;48.130;11.630;2023-07-08T04:52:01;16.70;99.90
21123;DHT22;10719;48.130;11.630;2023-07-08T04:54:30;16.80;99.90
21123;DHT22;10719;48.130;11.630;2023-07-08T04:56:55;16.90;99.90
21123;DHT22;10719;48.130;11.630;2023-07-08T04:59:24;16.90;99.90
21123;DHT22;10719;48.130;11.630;2023-07-08T05:01:50;16.90;99.90
21123;DHT22;10719;48.130;11.630;2023-07-08T05:04:18;17.00;99.90
21123;DHT22;10719;48.130;11.630;2023-07-08T05:06:44;17.10;99.90
21123;DHT22;10719;48.130;11.630;2023-07-08T05:09:10;17.40;99.90
21123;DHT22;10719;48.130;11.630;2023-07-08T05:11:36;17.60;99.90
21123;DHT22;10719;48.130;11.630;2023-07-08T05:14:03;17.60;99.90
21123;DHT22;10719;48.130;11.630;2023-07-08T05:16:29;17.60;99.90
21123;DHT22;10719;48.130;11.630;2023-07-08T05:18:55;17.60;99.90
21123;DHT22;10719;48.130;11.630;2023-07-08T05:21:21;17.70;99.90
21123;DHT22;10719;48.130;11.630;2023-07-08T05:23:47;17.80;99.90
21123;DHT22;10719;48.130;11.630;2023-07-08T05:26:16;17.90;99.90
21123;DHT22;10719;48.130;11.630;2023-07-08T05:28:42;17.80;99.90
21123;DHT22;10719;48.130;11.630;2023-07-08T05:31:08;17.90;99.90
21123;DHT22;10719;48.130;11.630;2023-07-08T05:33:33;17.90;99.90
21123;DHT22;10719;48.130;11.630;2023-07-08T05:35:59;17.70;99.90
21123;DHT22;10719;48.130;11.630;2023-07-08T05:38:26;17.80;99.90
21123;DHT22;10719;48.130;11.630;2023-07-08T05:40:56;18.00;99.90
21123;DHT22;10719;48.130;11.630;2023-07-08T05:43:23;18.00;99.90
21123;DHT22;10719;48.130;11.630;2023-07-08T05:45:49;18.20;99.90
21123;DHT22;10719;48.130;11.630;2023-07-08T05:48:14;18.50;99.90
21123;DHT22;10719;48.130;11.630;2023-07-08T05:50:40;18.70;99.90
21123;DHT22;10719;48.130;11.630;2023-07-08T05:53:10;18.90;99.90
21123;DHT22;10719;48.130;11.630;2023-07-08T05:55:36;18.90;99.90
21123;DHT22;10719;48.130;11.630;2023-07-08T05:58:02;19.10;99.90
21123;DHT22;10719;48.130;11.630;2023-07-08T06:00:28;19.20;99.90
21123;DHT22;10719;48.130;11.630;2023-07-08T06:02:53;19.20;99.90
21123;DHT22;10719;48.130;11.630;2023-07-08T06:05:19;19.00;99.90
21123;DHT22;10719;48.130;11.630;2023-07-08T06:07:44;19.20;99.90
21123;DHT22;10719;48.130;11.630;2023-07-08T06:10:10;19.30;99.90
21123;DHT22;10719;48.130;11.630;2023-07-08T06:12:36;19.50;99.90
21123;DHT22;10719;48.130;11.630;2023-07-08T06:15:02;19.30;99.90
21123;DHT22;10719;48.130;11.630;2023-07-08T06:17:28;19.40;99.90
21123;DHT22;10719;48.130;11.630;2023-07-08T06:19:53;19.40;99.90
21123;DHT22;10719;48.130;11.630;2023-07-08T06:22:19;19.50;99.90
21123;DHT22;10719;48.130;11.630;2023-07-08T06:24:45;19.60;99.90
21123;DHT22;10719;48.130;11.630;2023-07-08T06:27:12;19.50;99.90
21123;DHT22;10719;48.130;11.630;2023-07-08T06:29:37;19.60;99.90
21123;DHT22;10719;48.130;11.630;2023-07-08T06:32:03;19.60;99.90
21123;DHT22;10719;48.130;11.630;2023-07-08T06:34:29;19.90;99.90
21123;DHT22;10719;48.130;11.630;2023-07-08T06:36:55;20.00;99.90
21123;DHT22;10719;48.130;11.630;2023-07-08T06:39:20;20.20;99.90
21123;DHT22;10719;48.130;11.630;2023-07-08T06:41:46;20.40;99.90
21123;DHT22;10719;48.130;11.630;2023-07-08T06:44:11;20.50;99.90
21123;DHT22;10719;48.130;11.630;2023-07-08T06:46:37;20.90;99.90
21123;DHT22;10719;48.130;11.630;2023-07-08T06:49:03;21.00;99.90
21123;DHT22;10719;48.130;11.630;2023-07-08T06:51:29;21.00;99.90
21123;DHT22;10719;48.130;11.630;2023-07-08T06:53:55;21.00;99.90
21123;DHT22;10719;48.130;11.630;2023-07-08T06:56:20;21.10;99.90
21123;DHT22;10719;48.130;11.630;2023-07-08T06:58:46;21.20;99.90
21123;DHT22;10719;48.130;11.630;2023-07-08T07:01:12;21.20;99.90
21123;DHT22;10719;48.130;11.630;2023-07-08T07:03:38;21.40;99.90
21123;DHT22;10719;48.130;11.630;2023-07-08T07:06:03;21.10;99.90
21123;DHT22;10719;48.130;11.630;2023-07-08T07:08:29;21.10;99.90
21123;DHT22;10719;48.130;11.630;2023-07-08T07:10:55;21.10;99.90
21123;DHT22;10719;48.130;11.630;2023-07-08T07:13:20;21.40;99.90
21123;DHT22;10719;48.130;11.630;2023-07-08T07:15:48;21.60;99.90
21123;DHT22;10719;48.130;11.630;2023-07-08T07:18:14;21.60;99.90
21123;DHT22;10719;48.130;11.630;2023-07-08T07:20:50;21.60;99.90
21123;DHT22;10719;48.130;11.630;2023-07-08T07:23:16;21.60;99.90
21123;DHT22;10719;48.130;11.630;2023-07-08T07:25:42;21.60;99.90
21123;DHT22;10719;48.130;11.630;2023-07-08T07:28:09;22.00;99.90
21123;DHT22;10719;48.130;11.630;2023-07-08T07:30:35;21.90;99.90
21123;DHT22;10719;48.130;11.630;2023-07-08T07:33:01;21.90;99.90
21123;DHT22;10719;48.130;11.630;2023-07-08T07:35:26;22.00;99.90
21123;DHT22;10719;48.130;11.630;2023-07-08T07:37:52;22.10;99.90
21123;DHT22;10719;48.130;11.630;2023-07-08T07:40:18;22.20;99.90
21123;DHT22;10719;48.130;11.630;2023-07-08T07:42:45;22.10;99.90
21123;DHT22;10719;48.130;11.630;2023-07-08T07:45:12;22.50;99.90
21123;DHT22;10719;48.130;11.630;2023-07-08T07:47:38;22.50;99.90
21123;DHT22;10719;48.130;11.630;2023-07-08T07:50:06;22.60;99.90
21123;DHT22;10719;48.130;11.630;2023-07-08T07:52:32;22.80;99.90
21123;DHT22;10719;48.130;11.630;2023-07-08T07:54:58;23.10;99.90
21123;DHT22;10719;48.130;11.630;2023-07-08T07:57:24;22.90;99.90
21123;DHT22;10719;48.130;11.630;2023-07-08T07:59:50;22.90;99.90
21123;DHT22;10719;48.130;11.630;2023-07-08T08:02:16;23.00;99.90
21123;DHT22;10719;48.130;11.630;2023-07-08T08:04:42;23.00;99.90
21123;DHT22;10719;48.130;11.630;2023-07-08T08:07:07;23.10;99.90
21123;DHT22;10719;48.130;11.630;2023-07-08T08:09:33;23.10;99.90
21123;DHT22;10719;48.130;11.630;2023-07-08T08:12:01;23.10;99.90
21123;DHT22;10719;48.130;11.630;2023-07-08T08:14:27;23.10;99.90
21123;DHT22;10719;48.130;11.630;2023-07-08T08:16:53;23.00;99.90
21123;DHT22;10719;48.130;11.630;2023-07-08T08:19:18;23.10;99.90
21123;DHT22;10719;48.130;11.630;2023-07-08T08:21:44;23.30;99.90
21123;DHT22;10719;48.130;11.630;2023-07-08T08:24:09;23.40;99.90
21123;DHT22;10719;48.130;11.630;2023-07-08T08:26:35;23.60;99.90
21123;DHT22;10719;48.130;11.630;2023-07-08T08:29:01;23.70;99.90
21123;DHT22;10719;48.130;11.630;2023-07-08T08:31:26;23.50;99.90
21123;DHT22;10719;48.130;11.630;2023-07-08T08:33:52;23.40;99.90
21123;DHT22;10719;48.130;11.630;2023-07-08T08:36:18;23.30;99.90
21123;DHT22;10719;48.130;11.630;2023-07-08T08:38:44;23.30;99.90
21123;DHT22;10719;48.130;11.630;2023-07-08T08:41:13;23.40;99.90
21123;DHT22;10719;48.130;11.630;2023-07-08T08:43:41;23.30;99.90
21123;DHT22;10719;48.130;11.630;2023-07-08T08:46:28;23.30;99.90
21123;DHT22;10719;48.130;11.630;2023-07-08T08:51:35;23.50;99.90
21123;DHT22;10719;48.130;11.630;2023-07-08T08:54:01;24.00;99.90
21123;DHT22;10719;48.130;11.630;2023-07-08T08:59:45;24.00;99.90
21123;DHT22;10719;48.130;11.630;2023-07-08T09:05:05;23.90;99.90
21123;DHT22;10719;48.130;11.630;2023-07-08T09:13:16;24.30;99.90
21123;DHT22;10719;48.130;11.630;2023-07-08T09:15:44;24.60;99.90
21123;DHT22;10719;48.130;11.630;2023-07-08T09:18:19;24.50;99.90
21123;DHT22;10719;48.130;11.630;2023-07-08T09:20:46;24.40;99.90
21123;DHT22;10719;48.130;11.630;2023-07-08T09:23:24;24.20;99.90
21123;DHT22;10719;48.130;11.630;2023-07-08T09:26:04;24.40;99.90
21123;DHT22;10719;48.130;11.630;2023-07-08T09:28:42;24.60;99.90
21123;DHT22;10719;48.130;11.630;2023-07-08T09:31:22;25.00;99.90
21123;DHT22;10719;48.130;11.630;2023-07-08T09:33:51;25.00;99.90
21123;DHT22;10719;48.130;11.630;2023-07-08T09:36:20;24.80;99.90
21123;DHT22;10719;48.130;11.630;2023-07-08T09:38:48;24.80;99.90
21123;DHT22;10719;48.130;11.630;2023-07-08T09:41:28;24.80;99.90
21123;DHT22;10719;48.130;11.630;2023-07-08T09:44:03;25.20;99.90
21123;DHT22;10719;48.130;11.630;2023-07-08T09:46:35;25.30;99.90
21123;DHT22;10719;48.130;11.630;2023-07-08T09:49:19;24.90;99.90
21123;DHT22;10719;48.130;11.630;2023-07-08T09:51:46;25.00;99.90
21123;DHT22;10719;48.130;11.630;2023-07-08T09:54:12;25.10;99.90
21123;DHT22;10719;48.130;11.630;2023-07-08T09:56:43;25.20;99.90
21123;DHT22;10719;48.130;11.630;2023-07-08T09:59:13;25.30;99.90
21123;DHT22;10719;48.130;11.630;2023-07-08T10:01:41;25.10;99.90
21123;DHT22;10719;48.130;11.630;2023-07-08T10:04:07;25.30;99.90
21123;DHT22;10719;48.130;11.630;2023-07-08T10:06:33;25.70;99.90
21123;DHT22;10719;48.130;11.630;2023-07-08T10:09:08;26.00;99.90
21123;DHT22;10719;48.130;11.630;2023-07-08T10:11:47;26.10;99.90
21123;DHT22;10719;48.130;11.630;2023-07-08T10:16:51;26.20;99.90
21123;DHT22;10719;48.130;11.630;2023-07-08T10:19:19;26.20;99.90
21123;DHT22;10719;48.130;11.630;2023-07-08T10:24:30;26.40;99.90
21123;DHT22;10719;48.130;11.630;2023-07-08T10:27:12;26.50;99.90
21123;DHT22;10719;48.130;11.630;2023-07-08T10:52:02;27.80;99.90
21123;DHT22;10719;48.130;11.630;2023-07-08T11:05:42;28.50;99.90
21123;DHT22;10719;48.130;11.630;2023-07-08T11:08:41;28.70;99.90
21123;DHT22;10719;48.130;11.630;2023-07-08T11:16:37;28.80;99.90
21123;DHT22;10719;48.130;11.630;2023-07-08T11:19:21;29.20;99.90
21123;DHT22;10719;48.130;11.630;2023-07-08T11:21:50;29.70;99.90
21123;DHT22;10719;48.130;11.630;2023-07-08T11:26:50;30.40;99.90
21123;DHT22;10719;48.130;11.630;2023-07-08T11:29:35;30.60;99.90
21123;DHT22;10719;48.130;11.630;2023-07-08T11:32:02;30.70;99.90
21123;DHT22;10719;48.130;11.630;2023-07-08T11:34:29;30.40;99.90
21123;DHT22;10719;48.130;11.630;2023-07-08T11:36:57;30.20;99.90
21123;DHT22;10719;48.130;11.630;2023-07-08T11:42:17;30.80;99.90
21123;DHT22;10719;48.130;11.630;2023-07-08T11:44:56;30.80;99.90
21123;DHT22;10719;48.130;11.630;2023-07-08T11:47:38;31.00;99.90
21123;DHT22;10719;48.130;11.630;2023-07-08T11:53:01;31.80;99.90
21123;DHT22;10719;48.130;11.630;2023-07-08T11:55:57;31.50;99.90
21123;DHT22;10719;48.130;11.630;2023-07-08T11:58:27;31.30;99.90
21123;DHT22;10719;48.130;11.630;2023-07-08T12:03:47;31.90;99.90
21123;DHT22;10719;48.130;11.630;2023-07-08T12:08:55;33.20;99.90
21123;DHT22;10719;48.130;11.630;2023-07-08T12:11:32;33.90;99.90
21123;DHT22;10719;48.130;11.630;2023-07-08T12:13:59;33.80;99.90
21123;DHT22;10719;48.130;11.630;2023-07-08T12:16:27;34.20;98.00
21123;DHT22;10719;48.130;11.630;2023-07-08T12:18:54;34.70;96.90
21123;DHT22;10719;48.130;11.630;2023-07-08T12:21:23;34.50;99.40
21123;DHT22;10719;48.130;11.630;2023-07-08T12:23:48;33.70;97.80
21123;DHT22;10719;48.130;11.630;2023-07-08T12:26:15;33.50;98.30
21123;DHT22;10719;48.130;11.630;2023-07-08T12:28:41;33.10;99.90
21123;DHT22;10719;48.130;11.630;2023-07-08T12:31:21;33.40;99.90
21123;DHT22;10719;48.130;11.630;2023-07-08T12:33:47;34.30;99.10
21123;DHT22;10719;48.130;11.630;2023-07-08T12:36:21;34.50;98.30
21123;DHT22;10719;48.130;11.630;2023-07-08T12:38:49;33.90;97.60
21123;DHT22;10719;48.130;11.630;2023-07-08T12:41:24;33.90;96.80
21123;DHT22;10719;48.130;11.630;2023-07-08T12:43:50;33.90;97.20
21123;DHT22;10719;48.130;11.630;2023-07-08T12:46:17;33.30;96.30
21123;DHT22;10719;48.130;11.630;2023-07-08T12:48:43;33.80;95.70
21123;DHT22;10719;48.130;11.630;2023-07-08T12:51:18;34.00;95.10
21123;DHT22;10719;48.130;11.630;2023-07-08T12:53:46;34.00;96.40
21123;DHT22;10719;48.130;11.630;2023-07-08T12:56:12;34.50;97.90
21123;DHT22;10719;48.130;11.630;2023-07-08T12:58:41;34.50;95.50
21123;DHT22;10719;48.130;11.630;2023-07-08T13:01:08;34.70;98.10
21123;DHT22;10719;48.130;11.630;2023-07-08T13:03:41;34.80;97.10
21123;DHT22;10719;48.130;11.630;2023-07-08T13:06:09;35.10;97.70
21123;DHT22;10719;48.130;11.630;2023-07-08T13:08:37;34.70;97.80
21123;DHT22;10719;48.130;11.630;2023-07-08T13:11:05;34.20;97.90
21123;DHT22;10719;48.130;11.630;2023-07-08T13:13:46;33.90;97.50
21123;DHT22;10719;48.130;11.630;2023-07-08T13:16:13;35.00;96.80
21123;DHT22;10719;48.130;11.630;2023-07-08T13:18:40;35.50;96.90
21123;DHT22;10719;48.130;11.630;2023-07-08T13:21:10;35.30;95.30
21123;DHT22;10719;48.130;11.630;2023-07-08T13:23:37;35.90;96.90
21123;DHT22;10719;48.130;11.630;2023-07-08T13:26:13;36.30;95.00
21123;DHT22;10719;48.130;11.630;2023-07-08T13:28:40;36.20;93.30
21123;DHT22;10719;48.130;11.630;2023-07-08T13:31:20;36.30;96.50
21123;DHT22;10719;48.130;11.630;2023-07-08T13:33:48;36.70;96.10
21123;DHT22;10719;48.130;11.630;2023-07-08T13:36:18;36.70;96.20
21123;DHT22;10719;48.130;11.630;2023-07-08T13:38:44;37.70;94.70
21123;DHT22;10719;48.130;11.630;2023-07-08T13:41:11;37.60;92.00
21123;DHT22;10719;48.130;11.630;2023-07-08T13:43:41;38.60;91.40
21123;DHT22;10719;48.130;11.630;2023-07-08T13:46:28;37.30;91.60
21123;DHT22;10719;48.130;11.630;2023-07-08T13:48:54;36.40;93.70
21123;DHT22;10719;48.130;11.630;2023-07-08T13:51:22;36.60;94.60
21123;DHT22;10719;48.130;11.630;2023-07-08T13:53:51;37.00;94.00
21123;DHT22;10719;48.130;11.630;2023-07-08T13:56:30;37.70;93.20
21123;DHT22;10719;48.130;11.630;2023-07-08T13:59:07;37.10;92.00
21123;DHT22;10719;48.130;11.630;2023-07-08T14:01:38;36.90;92.60
21123;DHT22;10719;48.130;11.630;2023-07-08T14:04:04;37.00;90.50
21123;DHT22;10719;48.130;11.630;2023-07-08T14:06:33;36.30;91.90
21123;DHT22;10719;48.130;11.630;2023-07-08T14:09:20;36.90;92.40
21123;DHT22;10719;48.130;11.630;2023-07-08T14:11:47;37.80;92.90
21123;DHT22;10719;48.130;11.630;2023-07-08T14:14:13;37.40;91.20
21123;DHT22;10719;48.130;11.630;2023-07-08T14:16:46;37.10;90.80
21123;DHT22;10719;48.130;11.630;2023-07-08T14:19:15;37.10;90.10
21123;DHT22;10719;48.130;11.630;2023-07-08T14:21:42;37.50;91.10
21123;DHT22;10719;48.130;11.630;2023-07-08T14:24:12;37.90;89.60
21123;DHT22;10719;48.130;11.630;2023-07-08T14:26:43;36.40;87.60
21123;DHT22;10719;48.130;11.630;2023-07-08T14:29:09;35.90;89.40
21123;DHT22;10719;48.130;11.630;2023-07-08T14:31:35;35.40;89.20
21123;DHT22;10719;48.130;11.630;2023-07-08T14:34:22;35.50;88.60
21123;DHT22;10719;48.130;11.630;2023-07-08T14:36:48;35.40;91.00
21123;DHT22;10719;48.130;11.630;2023-07-08T14:39:15;34.10;91.60
21123;DHT22;10719;48.130;11.630;2023-07-08T14:41:43;33.40;92.60
21123;DHT22;10719;48.130;11.630;2023-07-08T14:44:23;33.10;94.90
21123;DHT22;10719;48.130;11.630;2023-07-08T14:46:50;32.70;95.20
21123;DHT22;10719;48.130;11.630;2023-07-08T14:49:20;31.80;94.80
21123;DHT22;10719;48.130;11.630;2023-07-08T14:51:47;31.60;96.80
21123;DHT22;10719;48.130;11.630;2023-07-08T14:54:12;31.10;97.00
21123;DHT22;10719;48.130;11.630;2023-07-08T14:56:39;31.20;96.50
21123;DHT22;10719;48.130;11.630;2023-07-08T14:59:06;31.10;96.50
21123;DHT22;10719;48.130;11.630;2023-07-08T15:01:33;31.30;97.30
21123;DHT22;10719;48.130;11.630;2023-07-08T15:03:59;31.10;95.30
21123;DHT22;10719;48.130;11.630;2023-07-08T15:06:25;30.60;97.30
21123;DHT22;10719;48.130;11.630;2023-07-08T15:08:50;30.30;97.90
21123;DHT22;10719;48.130;11.630;2023-07-08T15:11:17;30.10;96.30
21123;DHT22;10719;48.130;11.630;2023-07-08T15:13:43;29.90;96.10
21123;DHT22;10719;48.130;11.630;2023-07-08T15:16:15;29.70;95.30
21123;DHT22;10719;48.130;11.630;2023-07-08T15:18:41;29.70;95.70
21123;DHT22;10719;48.130;11.630;2023-07-08T15:21:14;29.80;96.80
21123;DHT22;10719;48.130;11.630;2023-07-08T15:23:40;29.80;97.50
21123;DHT22;10719;48.130;11.630;2023-07-08T15:26:10;30.00;95.70
21123;DHT22;10719;48.130;11.630;2023-07-08T15:31:09;30.30;95.40
21123;DHT22;10719;48.130;11.630;2023-07-08T15:33:36;30.40;96.90
21123;DHT22;10719;48.130;11.630;2023-07-08T15:36:01;30.40;96.80
21123;DHT22;10719;48.130;11.630;2023-07-08T15:38:27;30.20;95.40
21123;DHT22;10719;48.130;11.630;2023-07-08T15:40:52;30.30;99.30
21123;DHT22;10719;48.130;11.630;2023-07-08T15:43:18;30.10;97.50
21123;DHT22;10719;48.130;11.630;2023-07-08T15:45:43;29.80;97.80
21123;DHT22;10719;48.130;11.630;2023-07-08T15:48:17;29.70;99.30
21123;DHT22;10719;48.130;11.630;2023-07-08T15:50:43;29.80;98.10
21123;DHT22;10719;48.130;11.630;2023-07-08T15:53:09;30.20;99.10
21123;DHT22;10719;48.130;11.630;2023-07-08T15:55:38;30.40;99.10
21123;DHT22;10719;48.130;11.630;2023-07-08T15:58:08;31.70;95.90
21123;DHT22;10719;48.130;11.630;2023-07-08T16:00:37;32.60;95.60
21123;DHT22;10719;48.130;11.630;2023-07-08T16:03:09;33.60;95.70
21123;DHT22;10719;48.130;11.630;2023-07-08T16:05:36;34.20;93.80
21123;DHT22;10719;48.130;11.630;2023-07-08T16:08:02;35.00;92.90
21123;DHT22;10719;48.130;11.630;2023-07-08T16:10:28;35.00;92.20
21123;DHT22;10719;48.130;11.630;2023-07-08T16:12:55;35.40;94.50
21123;DHT22;10719;48.130;11.630;2023-07-08T16:15:34;34.60;91.90
21123;DHT22;10719;48.130;11.630;2023-07-08T16:18:00;33.60;90.30
21123;DHT22;10719;48.130;11.630;2023-07-08T16:20:27;32.80;90.40
21123;DHT22;10719;48.130;11.630;2023-07-08T16:22:53;32.40;90.60
21123;DHT22;10719;48.130;11.630;2023-07-08T16:25:32;32.50;90.50
21123;DHT22;10719;48.130;11.630;2023-07-08T16:27:59;32.30;90.40
21123;DHT22;10719;48.130;11.630;2023-07-08T16:30:26;31.80;91.30
21123;DHT22;10719;48.130;11.630;2023-07-08T16:32:52;31.30;92.80
21123;DHT22;10719;48.130;11.630;2023-07-08T16:35:20;31.20;91.30
21123;DHT22;10719;48.130;11.630;2023-07-08T16:37:54;31.00;92.10
21123;DHT22;10719;48.130;11.630;2023-07-08T16:40:22;30.60;93.70
21123;DHT22;10719;48.130;11.630;2023-07-08T16:42:51;30.30;94.00
21123;DHT22;10719;48.130;11.630;2023-07-08T16:45:18;30.00;95.00